Time;durP1;ratioP1;P1;durP2;ratioP2;P2;SDS_P1;SDS_P2;PMS_P1;PMS_P2;Temp;Humidity;BMP_temperature;BMP_pressure;BME280_temperature;BME280_humidity;BME280_pressure;Samples;Min_cycle;Max_cycle;Signal;HPM_P1;HPM_P2
2022/09/10 00:01:17;;;;;;;11.27;8.40;;;14.60;99.90;;;;;;4986759;28;20402;-82
2022/09/10 00:03:42;;;;;;;13.68;9.02;;;14.60;99.90;;;;;;4982253;28;20101;-82
2022/09/10 00:06:09;;;;;;;12.27;8.98;;;14.60;99.90;;;;;;4971463;28;20042;-82
2022/09/10 00:08:36;;;;;;;14.50;10.20;;;14.60;99.90;;;;;;4971445;28;20137;-82
2022/09/10 00:11:05;;;;;;;12.20;8.02;;;14.60;99.90;;;;;;4968382;28;20050;-82
2022/09/10 00:13:31;;;;;;;13.65;9.70;;;14.60;99.90;;;;;;4984252;28;20054;-82
2022/09/10 00:15:58;;;;;;;14.02;9.60;;;14.50;99.90;;;;;;4971607;28;20046;-82
2022/09/10 00:18:24;;;;;;;12.45;10.65;;;14.60;99.90;;;;;;4989204;28;20038;-82
2022/09/10 00:20:55;;;;;;;14.13;10.45;;;14.70;99.90;;;;;;4976368;28;20517;-82
2022/09/10 00:23:24;;;;;;;18.70;11.45;;;14.70;99.90;;;;;;4962316;28;20042;-81
2022/09/10 00:25:52;;;;;;;16.15;9.77;;;14.60;99.90;;;;;;4987552;28;20084;-82
2022/09/10 00:28:18;;;;;;;19.77;11.15;;;14.60;99.90;;;;;;4988506;28;20090;-82
2022/09/10 00:30:46;;;;;;;15.48;11.57;;;14.70;99.90;;;;;;4986561;28;20042;-82
2022/09/10 00:33:13;;;;;;;16.25;11.70;;;14.80;99.90;;;;;;4988424;28;20133;-82
2022/09/10 00:35:39;;;;;;;14.52;11.77;;;14.70;99.90;;;;;;4987115;28;20125;-82
2022/09/10 00:38:06;;;;;;;19.67;12.00;;;14.70;99.90;;;;;;4987399;28;20125;-82
2022/09/10 00:40:32;;;;;;;13.35;10.27;;;14.70;99.90;;;;;;4973902;28;20042;-81
2022/09/10 00:42:59;;;;;;;14.18;10.13;;;14.70;99.90;;;;;;4983476;28;20133;-82
2022/09/10 00:45:30;;;;;;;17.42;12.00;;;14.80;99.90;;;;;;4988315;28;20049;-81
2022/09/10 00:48:01;;;;;;;17.02;11.23;;;14.80;99.90;;;;;;4980963;28;20407;-82
2022/09/10 00:50:32;;;;;;;16.73;11.50;;;14.80;99.90;;;;;;4984428;28;20038;-82
2022/09/10 00:53:01;;;;;;;17.92;11.20;;;14.90;99.90;;;;;;4985193;28;20039;-82
2022/09/10 00:55:27;;;;;;;13.48;11.63;;;14.90;99.90;;;;;;4987256;28;20050;-82
2022/09/10 00:57:57;;;;;;;15.63;11.73;;;14.90;99.90;;;;;;4979423;28;20086;-82
2022/09/10 01:00:23;;;;;;;14.68;11.30;;;15.00;99.90;;;;;;4965326;28;20529;-82
2022/09/10 01:02:48;;;;;;;18.00;12.18;;;15.00;99.90;;;;;;4976454;28;20046;-81
2022/09/10 01:05:16;;;;;;;17.80;12.48;;;14.90;99.90;;;;;;4988275;28;20152;-81
2022/09/10 01:07:42;;;;;;;17.50;12.52;;;15.00;99.90;;;;;;4988872;28;20421;-81
2022/09/10 01:10:16;;;;;;;15.10;12.68;;;15.00;99.90;;;;;;4970318;28;20078;-82
2022/09/10 01:13:00;;;;;;;;;;;14.90;99.90;;;;;;4982451;28;20439;-81
2022/09/10 01:15:49;;;;;;;21.50;13.23;;;15.00;99.90;;;;;;4983588;28;19922;-82
2022/09/10 01:18:15;;;;;;;18.55;12.88;;;15.00;99.90;;;;;;4984527;28;20410;-82
2022/09/10 01:20:44;;;;;;;21.80;13.57;;;15.00;99.90;;;;;;4980676;28;20046;-81
2022/09/10 01:23:16;;;;;;;15.27;11.68;;;15.00;99.90;;;;;;4984894;28;20038;-82
2022/09/10 01:26:26;;;;;;;19.02;14.50;;;15.00;99.90;;;;;;4970135;28;20055;-82
2022/09/10 01:29:20;;;;;;;18.23;13.05;;;15.10;99.90;;;;;;4979435;28;20038;-82
2022/09/10 01:32:05;;;;;;;16.05;13.00;;;15.10;99.90;;;;;;4984580;28;20047;-82
2022/09/10 01:34:49;;;;;;;18.30;13.43;;;15.10;99.90;;;;;;4983003;28;20463;-82
2022/09/10 01:37:20;;;;;;;21.02;14.48;;;15.10;99.90;;;;;;4987765;28;20042;-82
2022/09/10 01:39:48;;;;;;;18.67;14.35;;;15.20;99.90;;;;;;4969516;28;20380;-82
2022/09/10 01:42:14;;;;;;;19.40;14.27;;;15.10;99.90;;;;;;4987452;28;20035;-82
2022/09/10 01:44:48;;;;;;;19.48;14.35;;;15.20;99.90;;;;;;4986695;28;20047;-82
2022/09/10 01:47:53;;;;;;;19.90;14.02;;;15.10;99.90;;;;;;4980893;28;20101;-82
2022/09/10 01:50:33;;;;;;;21.10;15.40;;;15.10;99.90;;;;;;4990787;28;20487;-82
2022/09/10 01:53:05;;;;;;;20.15;14.13;;;15.10;99.90;;;;;;4981325;28;20050;-82
2022/09/10 01:55:52;;;;;;;17.83;14.27;;;15.10;99.90;;;;;;4971750;28;20454;-82
2022/09/10 01:58:29;;;;;;;19.77;14.48;;;15.20;99.90;;;;;;4990238;28;20486;-82
2022/09/10 02:01:01;;;;;;;21.75;15.45;;;15.10;99.90;;;;;;4991081;28;20062;-82
2022/09/10 02:03:28;;;;;;;22.80;15.35;;;15.20;99.90;;;;;;4984917;28;20035;-82
2022/09/10 02:05:55;;;;;;;21.65;15.07;;;15.20;99.90;;;;;;4990717;28;20043;-82
2022/09/10 02:08:26;;;;;;;19.23;15.73;;;15.20;99.90;;;;;;4989155;28;20057;-82
2022/09/10 02:10:55;;;;;;;18.92;14.50;;;15.20;99.90;;;;;;4991697;28;20489;-82
2022/09/10 02:13:22;;;;;;;19.83;15.02;;;15.20;99.90;;;;;;4990908;28;20042;-82
2022/09/10 02:15:50;;;;;;;24.88;16.17;;;15.30;99.90;;;;;;4984980;28;20491;-82
2022/09/10 02:18:17;;;;;;;21.23;16.98;;;15.30;99.90;;;;;;4983965;28;20039;-82
2022/09/10 02:20:44;;;;;;;23.33;17.63;;;15.30;99.90;;;;;;4990277;28;20124;-82
2022/09/10 02:23:11;;;;;;;23.38;17.17;;;15.30;99.90;;;;;;4985467;28;20389;-82
2022/09/10 02:25:36;;;;;;;22.80;17.38;;;15.30;99.90;;;;;;4971153;28;20046;-82
2022/09/10 02:28:04;;;;;;;24.35;18.05;;;15.20;99.90;;;;;;4973850;28;20145;-82
2022/09/10 02:30:30;;;;;;;23.08;16.67;;;15.30;99.90;;;;;;4990971;28;20525;-82
2022/09/10 02:32:55;;;;;;;24.85;17.00;;;15.30;99.90;;;;;;4990432;28;20048;-82
2022/09/10 02:35:21;;;;;;;22.83;17.20;;;15.30;99.90;;;;;;4985200;28;20134;-81
2022/09/10 02:37:48;;;;;;;28.63;19.35;;;15.30;99.90;;;;;;4991053;28;20050;-82
2022/09/10 02:40:14;;;;;;;23.38;15.63;;;15.30;99.90;;;;;;4973681;28;20093;-82
2022/09/10 02:42:45;;;;;;;27.25;18.65;;;15.30;99.90;;;;;;4988328;28;20042;-82
2022/09/10 02:45:12;;;;;;;23.73;17.88;;;15.30;99.90;;;;;;4973324;28;20101;-81
2022/09/10 02:47:38;;;;;;;24.38;18.38;;;15.30;99.90;;;;;;4986944;28;20113;-82
2022/09/10 02:50:05;;;;;;;27.52;20.23;;;15.30;99.90;;;;;;4967385;28;20121;-82
2022/09/10 02:52:32;;;;;;;27.60;20.10;;;15.30;99.90;;;;;;4990307;28;20038;-82
2022/09/10 02:54:58;;;;;;;30.33;20.45;;;15.30;99.90;;;;;;4968761;28;20050;-82
2022/09/10 02:57:24;;;;;;;29.60;22.40;;;15.30;99.90;;;;;;4984985;28;20101;-82
2022/09/10 02:59:51;;;;;;;29.08;20.58;;;15.30;99.90;;;;;;4972665;28;20085;-82
2022/09/10 03:02:17;;;;;;;28.50;20.77;;;15.30;99.90;;;;;;4987207;28;20487;-82
2022/09/10 03:04:43;;;;;;;31.25;21.95;;;15.30;99.90;;;;;;4989335;28;20042;-81
2022/09/10 03:07:08;;;;;;;34.85;24.27;;;15.30;99.90;;;;;;4986701;28;20122;-81
2022/09/10 03:09:34;;;;;;;37.00;23.63;;;15.30;99.90;;;;;;4990559;28;20407;-82
2022/09/10 03:12:00;;;;;;;35.58;24.27;;;15.30;99.90;;;;;;4988681;28;20114;-82
2022/09/10 03:14:27;;;;;;;34.10;22.83;;;15.30;99.90;;;;;;4972152;28;20053;-82
2022/09/10 03:16:52;;;;;;;33.85;24.13;;;15.30;99.90;;;;;;4985157;28;20050;-82
2022/09/10 03:19:19;;;;;;;33.28;22.00;;;15.30;99.90;;;;;;4987904;28;20358;-82
2022/09/10 03:21:46;;;;;;;34.90;23.80;;;15.40;99.90;;;;;;4989638;28;20288;-82
2022/09/10 03:24:11;;;;;;;34.13;23.05;;;15.40;99.90;;;;;;4990497;28;20051;-82
2022/09/10 03:26:37;;;;;;;34.20;23.50;;;15.40;99.90;;;;;;4982325;28;20114;-82
2022/09/10 03:29:03;;;;;;;32.70;23.30;;;15.40;99.90;;;;;;4985845;28;20117;-82
2022/09/10 03:31:29;;;;;;;32.40;22.95;;;15.40;99.90;;;;;;4976683;28;20082;-82
2022/09/10 03:33:56;;;;;;;31.77;22.90;;;15.40;99.90;;;;;;4988208;28;20058;-82
2022/09/10 03:36:22;;;;;;;30.92;22.60;;;15.40;99.90;;;;;;4987053;28;20097;-82
2022/09/10 03:38:48;;;;;;;35.55;21.88;;;15.40;99.90;;;;;;4987436;28;20105;-82
2022/09/10 03:41:13;;;;;;;27.60;18.90;;;15.40;99.90;;;;;;4989062;28;20057;-82
2022/09/10 03:43:39;;;;;;;34.90;22.50;;;15.40;99.90;;;;;;4989131;28;20038;-82
2022/09/10 03:46:05;;;;;;;31.58;21.70;;;15.30;99.90;;;;;;4965317;28;20086;-81
2022/09/10 03:48:31;;;;;;;33.33;21.90;;;15.30;99.90;;;;;;4989084;28;20395;-82
2022/09/10 03:50:56;;;;;;;30.98;21.52;;;15.30;99.90;;;;;;4987298;28;20042;-82
2022/09/10 03:53:22;;;;;;;42.05;22.73;;;15.40;99.90;;;;;;4989805;28;20521;-82
2022/09/10 03:55:49;;;;;;;31.17;22.73;;;15.30;99.90;;;;;;4987633;28;20057;-82
2022/09/10 03:58:16;;;;;;;31.23;22.38;;;15.10;99.90;;;;;;4966193;28;20089;-81
2022/09/10 04:00:42;;;;;;;31.08;20.50;;;15.20;99.90;;;;;;4988202;28;20562;-82
2022/09/10 04:03:09;;;;;;;33.00;21.83;;;15.30;99.90;;;;;;4989811;28;20178;-82
2022/09/10 04:05:39;;;;;;;35.50;23.50;;;15.30;99.90;;;;;;4971220;28;20125;-82
2022/09/10 04:08:06;;;;;;;29.58;21.60;;;15.30;99.90;;;;;;4971601;28;20049;-82
2022/09/10 04:10:32;;;;;;;28.13;21.30;;;15.30;99.90;;;;;;4972812;28;20064;-82
2022/09/10 04:12:58;;;;;;;29.67;21.05;;;15.30;99.90;;;;;;4987235;28;20507;-82
2022/09/10 04:15:24;;;;;;;30.88;22.33;;;15.30;99.90;;;;;;4988405;28;20123;-82
2022/09/10 04:17:50;;;;;;;31.83;21.58;;;15.30;99.90;;;;;;4988385;28;20125;-82
2022/09/10 04:20:19;;;;;;;31.30;21.95;;;15.30;99.90;;;;;;4984896;28;20085;-82
2022/09/10 04:22:46;;;;;;;31.83;20.52;;;15.30;99.90;;;;;;4984019;28;20082;-82
2022/09/10 04:25:11;;;;;;;29.27;20.73;;;15.30;99.90;;;;;;4967317;28;20059;-82
2022/09/10 04:27:38;;;;;;;28.92;20.40;;;15.30;99.90;;;;;;4966435;28;20501;-81
2022/09/10 04:30:04;;;;;;;29.77;22.08;;;15.20;99.90;;;;;;4983745;28;20050;-82
2022/09/10 04:32:30;;;;;;;29.20;20.45;;;15.20;99.90;;;;;;4982196;28;20049;-82
2022/09/10 04:34:55;;;;;;;30.38;21.25;;;15.20;99.90;;;;;;4989074;28;20121;-81
2022/09/10 04:37:21;;;;;;;31.67;21.65;;;15.20;99.90;;;;;;4970038;28;20043;-81
2022/09/10 04:39:47;;;;;;;32.25;21.77;;;15.20;99.90;;;;;;4988303;28;20038;-82
2022/09/10 04:42:19;;;;;;;27.10;20.13;;;15.10;99.90;;;;;;4986590;28;20038;-82
2022/09/10 04:44:48;;;;;;;31.55;20.48;;;15.10;99.90;;;;;;4988069;28;20053;-81
2022/09/10 04:47:14;;;;;;;28.38;19.80;;;15.10;99.90;;;;;;4985789;28;20038;-82
2022/09/10 04:49:41;;;;;;;29.15;21.10;;;15.10;99.90;;;;;;4966580;28;20082;-82
2022/09/10 04:52:06;;;;;;;26.83;18.65;;;15.10;99.90;;;;;;4987486;28;20050;-82
2022/09/10 04:54:36;;;;;;;24.00;17.92;;;15.10;99.90;;;;;;4988044;28;20045;-82
2022/09/10 04:57:03;;;;;;;27.70;20.08;;;15.10;99.90;;;;;;4967627;28;20038;-82
2022/09/10 04:59:28;;;;;;;28.08;19.48;;;15.10;99.90;;;;;;4965734;28;20046;-82
2022/09/10 05:01:54;;;;;;;31.05;19.95;;;15.10;99.90;;;;;;4989780;28;20121;-82
2022/09/10 05:04:19;;;;;;;26.40;19.13;;;15.10;99.90;;;;;;4983535;28;20061;-82
2022/09/10 05:06:48;;;;;;;28.52;19.73;;;15.10;99.90;;;;;;4986216;28;20119;-82
2022/09/10 05:09:17;;;;;;;26.85;19.02;;;15.20;99.90;;;;;;4970551;28;20462;-82
2022/09/10 05:11:43;;;;;;;29.00;20.48;;;15.20;99.90;;;;;;4958262;28;20110;-82
2022/09/10 05:14:08;;;;;;;27.55;19.63;;;15.20;99.90;;;;;;4982535;28;20701;-82
2022/09/10 05:16:35;;;;;;;25.55;19.30;;;15.20;99.90;;;;;;4983958;28;20054;-82
2022/09/10 05:19:01;;;;;;;26.35;19.15;;;15.20;99.90;;;;;;4986213;28;20048;-81
2022/09/10 05:21:28;;;;;;;30.17;19.33;;;15.20;99.90;;;;;;4987780;28;20494;-82
2022/09/10 05:23:55;;;;;;;23.80;18.83;;;15.30;99.90;;;;;;4987981;28;20050;-82
2022/09/10 05:26:21;;;;;;;25.15;19.35;;;15.30;99.90;;;;;;4990509;28;20049;-82
2022/09/10 05:28:46;;;;;;;25.65;19.48;;;15.30;99.90;;;;;;4990362;28;20398;-82
2022/09/10 05:31:12;;;;;;;27.80;20.00;;;15.30;99.90;;;;;;4988761;28;20052;-82
2022/09/10 05:33:39;;;;;;;30.42;19.92;;;15.30;99.90;;;;;;4990852;28;20132;-82
2022/09/10 05:36:08;;;;;;;27.55;19.25;;;15.20;99.90;;;;;;4984256;28;20113;-82
2022/09/10 05:38:34;;;;;;;28.15;19.25;;;15.30;99.90;;;;;;4972637;28;20054;-82
2022/09/10 05:40:59;;;;;;;28.88;19.85;;;15.30;99.90;;;;;;4971407;28;20133;-82
2022/09/10 05:43:26;;;;;;;23.05;18.15;;;15.40;99.90;;;;;;4989617;28;20387;-82
2022/09/10 05:45:52;;;;;;;28.35;18.95;;;15.40;99.90;;;;;;4972711;28;20257;-83
2022/09/10 05:48:17;;;;;;;28.20;19.48;;;15.40;99.90;;;;;;4969110;28;20069;-83
2022/09/10 05:50:46;;;;;;;25.75;18.83;;;15.40;99.90;;;;;;4987109;28;20039;-82
2022/09/10 05:53:12;;;;;;;26.35;18.75;;;15.50;99.90;;;;;;4971119;28;20097;-83
2022/09/10 05:55:38;;;;;;;27.02;18.80;;;15.50;99.90;;;;;;4989571;28;20042;-83
2022/09/10 05:58:03;;;;;;;25.05;18.58;;;15.50;99.90;;;;;;4989402;28;20327;-83
2022/09/10 06:00:29;;;;;;;23.25;18.00;;;15.50;99.90;;;;;;4995967;28;20046;-82
2022/09/10 06:02:58;;;;;;;24.92;18.67;;;15.50;99.90;;;;;;4990067;28;20046;-82
2022/09/10 06:05:23;;;;;;;30.48;19.45;;;15.60;99.90;;;;;;4993970;28;20134;-82
2022/09/10 06:07:50;;;;;;;25.88;19.23;;;15.50;99.90;;;;;;4990037;28;20117;-82
2022/09/10 06:10:16;;;;;;;26.25;16.95;;;15.50;99.90;;;;;;4988315;28;20054;-83
2022/09/10 06:12:50;;;;;;;29.42;18.58;;;15.50;99.90;;;;;;4973315;28;20537;-82
2022/09/10 06:15:17;;;;;;;20.60;14.63;;;15.50;99.90;;;;;;4990824;28;20483;-82
2022/09/10 06:17:43;;;;;;;31.23;19.38;;;15.70;99.90;;;;;;4991617;28;20507;-82
2022/09/10 06:20:10;;;;;;;29.25;18.83;;;15.50;99.90;;;;;;4973593;28;20043;-82
2022/09/10 06:22:35;;;;;;;28.33;20.17;;;15.60;99.90;;;;;;4972379;28;20038;-83
2022/09/10 06:25:01;;;;;;;31.35;19.15;;;15.60;99.90;;;;;;4984324;28;20101;-82
2022/09/10 06:27:26;;;;;;;32.25;20.42;;;15.60;99.90;;;;;;4990529;28;20038;-83
2022/09/10 06:29:52;;;;;;;31.55;20.00;;;15.60;99.90;;;;;;4988975;28;20042;-84
2022/09/10 06:32:18;;;;;;;26.98;18.48;;;15.50;99.90;;;;;;4988627;28;20050;-83
2022/09/10 06:34:43;;;;;;;27.40;18.83;;;15.60;99.90;;;;;;4986567;28;20098;-82
2022/09/10 06:37:09;;;;;;;29.98;19.30;;;15.60;99.90;;;;;;4982844;28;20479;-90
2022/09/10 06:39:35;;;;;;;32.45;20.75;;;15.60;99.90;;;;;;4964074;28;20130;-83
2022/09/10 06:42:00;;;;;;;28.58;19.33;;;15.60;99.90;;;;;;4983802;28;20043;-84
2022/09/10 06:44:28;;;;;;;31.48;19.55;;;15.60;99.90;;;;;;4985052;28;20483;-84
2022/09/10 06:46:54;;;;;;;31.85;20.70;;;15.70;99.90;;;;;;4988934;28;20483;-85
2022/09/10 06:49:20;;;;;;;33.25;19.30;;;15.70;99.90;;;;;;4988544;28;20052;-84
2022/09/10 06:51:48;;;;;;;28.00;19.77;;;15.70;99.90;;;;;;4971070;28;20086;-85
2022/09/10 06:54:13;;;;;;;33.88;20.33;;;15.70;99.90;;;;;;4988463;28;20512;-85
2022/09/10 06:56:41;;;;;;;28.25;19.13;;;15.70;99.90;;;;;;4985171;28;20035;-85
2022/09/10 06:59:07;;;;;;;29.98;19.80;;;15.80;99.90;;;;;;4989500;28;20128;-85
2022/09/10 07:01:33;;;;;;;36.35;21.63;;;15.80;99.90;;;;;;4975695;28;20038;-82
2022/09/10 07:04:00;;;;;;;32.20;20.73;;;15.80;99.90;;;;;;4986171;28;20097;-82
2022/09/10 07:06:28;;;;;;;32.47;20.83;;;15.80;99.90;;;;;;4988106;28;20049;-82
2022/09/10 07:08:57;;;;;;;35.88;20.55;;;15.80;99.90;;;;;;4969701;28;20042;-82
2022/09/10 07:11:24;;;;;;;31.83;20.45;;;15.90;99.90;;;;;;4987773;28;20537;-82
2022/09/10 07:13:51;;;;;;;31.10;21.42;;;15.90;99.90;;;;;;4970727;28;20057;-82
2022/09/10 07:16:18;;;;;;;33.50;20.15;;;15.90;99.90;;;;;;4993073;28;20088;-82
2022/09/10 07:18:47;;;;;;;30.95;20.27;;;15.90;99.90;;;;;;4988591;28;20416;-82
2022/09/10 07:21:14;;;;;;;33.22;20.23;;;16.00;99.90;;;;;;4971890;28;20056;-82
2022/09/10 07:23:40;;;;;;;28.92;18.98;;;16.00;99.90;;;;;;4972377;28;20097;-81
2022/09/10 07:26:08;;;;;;;32.75;20.58;;;16.00;99.90;;;;;;4988340;28;20110;-81
2022/09/10 07:28:35;;;;;;;27.25;19.27;;;16.00;99.90;;;;;;4972198;28;20398;-82
2022/09/10 07:31:23;;;;;;;32.53;19.73;;;16.10;99.90;;;;;;4987959;28;20042;-81
2022/09/10 07:33:49;;;;;;;31.30;20.25;;;16.10;99.90;;;;;;4983926;28;20042;-82
2022/09/10 07:36:16;;;;;;;32.42;19.70;;;16.10;99.90;;;;;;4971412;28;20097;-82
2022/09/10 07:38:42;;;;;;;31.63;20.08;;;16.20;99.90;;;;;;4981817;28;20081;-83
2022/09/10 07:41:10;;;;;;;32.03;20.48;;;16.20;99.90;;;;;;4984353;28;20047;-83
2022/09/10 07:43:38;;;;;;;30.40;19.05;;;16.20;99.90;;;;;;4987333;28;20068;-83
2022/09/10 07:46:07;;;;;;;28.95;20.02;;;16.20;99.90;;;;;;4987982;28;20050;-83
2022/09/10 07:48:33;;;;;;;29.98;19.40;;;16.30;99.90;;;;;;4976838;28;20506;-83
2022/09/10 07:51:04;;;;;;;29.80;19.80;;;16.30;99.90;;;;;;4966695;28;20081;-85
2022/09/10 07:53:30;;;;;;;29.35;19.58;;;16.30;99.90;;;;;;4984204;28;20109;-85
2022/09/10 07:56:01;;;;;;;29.80;19.02;;;16.40;99.90;;;;;;4988344;28;20068;-85
2022/09/10 07:58:31;;;;;;;27.98;19.15;;;16.40;99.90;;;;;;4974656;28;20471;-85
2022/09/10 08:00:58;;;;;;;29.77;19.77;;;16.40;99.90;;;;;;4987122;28;20521;-85
2022/09/10 08:03:25;;;;;;;27.27;18.92;;;16.50;99.90;;;;;;4981500;28;20389;-85
2022/09/10 08:05:51;;;;;;;29.90;20.88;;;16.50;99.90;;;;;;4984409;28;20109;-85
2022/09/10 08:08:18;;;;;;;30.48;19.17;;;16.60;99.90;;;;;;4982759;28;20455;-86
2022/09/10 08:10:44;;;;;;;31.05;20.15;;;16.60;99.90;;;;;;4980805;28;20054;-85
2022/09/10 08:13:10;;;;;;;26.33;19.25;;;16.60;99.90;;;;;;4985511;28;20109;-85
2022/09/10 08:15:43;;;;;;;29.35;19.10;;;16.60;99.90;;;;;;4968718;28;20049;-83
2022/09/10 08:18:10;;;;;;;31.75;19.63;;;16.60;99.90;;;;;;4988187;28;20038;-84
2022/09/10 08:20:36;;;;;;;29.38;19.23;;;16.70;99.90;;;;;;4967758;28;20054;-83
2022/09/10 08:23:02;;;;;;;29.70;19.50;;;16.70;99.90;;;;;;4981908;28;20043;-85
2022/09/10 08:25:27;;;;;;;32.78;20.70;;;16.70;99.90;;;;;;4981084;28;20038;-84
2022/09/10 08:27:53;;;;;;;28.73;20.20;;;16.70;99.90;;;;;;4984143;28;20412;-83
2022/09/10 08:30:19;;;;;;;27.98;19.60;;;16.80;99.90;;;;;;4984042;28;20418;-83
2022/09/10 08:32:45;;;;;;;29.92;19.60;;;16.90;99.90;;;;;;4987825;28;20141;-83
2022/09/10 08:35:10;;;;;;;33.03;20.15;;;16.90;99.90;;;;;;4988333;28;20097;-93
2022/09/10 08:37:36;;;;;;;32.05;19.40;;;17.00;99.90;;;;;;4986692;28;20043;-83
2022/09/10 08:40:04;;;;;;;32.25;19.17;;;17.10;99.90;;;;;;4965480;28;20050;-83
2022/09/10 08:42:38;;;;;;;28.23;18.83;;;17.20;99.90;;;;;;4963116;28;20368;-83
2022/09/10 08:45:30;;;;;;;29.15;18.27;;;17.30;99.90;;;;;;4990667;28;20423;-86
2022/09/10 08:48:01;;;;;;;25.35;17.50;;;17.40;99.90;;;;;;4969355;28;20105;-83
2022/09/10 08:50:51;;;;;;;31.42;20.20;;;17.40;99.90;;;;;;4970931;28;20050;-84
2022/09/10 08:53:31;;;;;;;26.85;18.40;;;17.40;99.90;;;;;;4966506;28;20078;-83
2022/09/10 08:56:08;;;;;;;27.95;18.70;;;17.40;99.90;;;;;;4987536;28;20089;-83
2022/09/10 08:58:50;;;;;;;32.25;18.58;;;17.40;99.90;;;;;;4986501;28;20070;-83
2022/09/10 09:01:39;;;;;;;26.52;17.02;;;17.50;99.90;;;;;;4985526;28;20093;-83
2022/09/10 09:04:15;;;;;;;27.30;17.58;;;17.50;99.90;;;;;;4985843;28;20042;-83
2022/09/10 09:06:47;;;;;;;24.50;18.23;;;17.60;99.90;;;;;;4981691;28;20050;-83
2022/09/10 09:09:13;;;;;;;28.73;17.83;;;17.60;99.90;;;;;;4987620;28;20043;-83
2022/09/10 09:11:53;;;;;;;27.95;16.88;;;17.70;99.90;;;;;;4953896;28;20058;-83
2022/09/10 09:14:50;;;;;;;25.58;17.98;;;17.70;99.90;;;;;;4970949;28;20042;-83
2022/09/10 09:17:46;;;;;;;31.33;18.92;;;17.70;99.90;;;;;;4985824;28;20044;-83
2022/09/10 09:20:29;;;;;;;24.60;17.70;;;17.70;99.90;;;;;;4963643;28;20110;-83
2022/09/10 09:22:59;;;;;;;27.95;18.10;;;17.70;99.90;;;;;;4967131;28;20054;-83
2022/09/10 09:25:36;;;;;;;26.38;18.55;;;17.70;99.90;;;;;;4987064;28;20061;-83
2022/09/10 09:28:18;;;;;;;28.17;18.05;;;17.80;99.90;;;;;;4968359;28;20050;-84
2022/09/10 09:30:48;;;;;;;28.10;19.00;;;17.80;99.90;;;;;;4985003;28;20121;-83
2022/09/10 09:33:18;;;;;;;27.77;17.92;;;18.00;99.90;;;;;;4965471;28;20046;-83
2022/09/10 09:36:14;;;;;;;24.42;17.17;;;18.20;99.90;;;;;;4986974;28;20375;-82
2022/09/10 09:38:42;;;;;;;24.90;16.17;;;18.20;99.90;;;;;;4961989;28;20402;-83
2022/09/10 09:41:24;;;;;;;24.48;16.85;;;18.30;99.90;;;;;;4988218;28;20137;-82
2022/09/10 09:44:21;;;;;;;26.58;17.83;;;18.40;99.90;;;;;;4984823;28;20047;-82
2022/09/10 09:46:48;;;;;;;21.95;16.15;;;18.50;99.90;;;;;;4963219;28;20130;-82
2022/09/10 09:49:15;;;;;;;21.90;16.05;;;18.60;99.90;;;;;;4987555;28;20034;-83
2022/09/10 09:51:44;;;;;;;25.42;15.80;;;18.70;99.90;;;;;;4968209;28;21382;-83
2022/09/10 09:54:17;;;;;;;22.27;15.00;;;18.70;99.90;;;;;;4985912;28;20050;-83
2022/09/10 09:56:48;;;;;;;22.85;15.27;;;18.80;99.90;;;;;;4979508;28;20065;-85
2022/09/10 09:59:29;;;;;;;22.88;15.40;;;18.80;99.90;;;;;;4966052;28;20050;-86
2022/09/10 10:02:14;;;;;;;24.77;14.55;;;18.80;99.90;;;;;;4964165;28;20145;-86
2022/09/10 10:05:23;;;;;;;22.60;15.15;;;18.80;99.90;;;;;;4986724;28;20052;-84
2022/09/10 10:07:49;;;;;;;20.10;15.00;;;18.80;99.90;;;;;;4986602;28;20054;-83
2022/09/10 10:10:26;;;;;;;23.10;15.75;;;18.90;99.90;;;;;;4974089;28;20081;-84
2022/09/10 10:12:53;;;;;;;21.38;14.43;;;18.90;99.90;;;;;;4971869;28;20054;-86
2022/09/10 10:15:41;;;;;;;20.02;13.85;;;18.90;99.90;;;;;;4986701;28;20077;-89
2022/09/10 10:18:21;;;;;;;22.17;13.65;;;18.80;99.90;;;;;;4962030;28;20062;-84
2022/09/10 10:21:14;;;;;;;19.20;12.73;;;18.80;99.90;;;;;;4987905;28;20539;-85
2022/09/10 10:23:39;;;;;;;18.65;13.27;;;18.80;99.90;;;;;;4982248;28;20053;-83
2022/09/10 10:26:31;;;;;;;21.63;12.95;;;18.80;99.90;;;;;;4984547;28;20038;-84
2022/09/10 10:29:05;;;;;;;17.05;12.95;;;18.80;99.90;;;;;;4989673;28;20046;-84
2022/09/10 10:31:40;;;;;;;20.27;13.48;;;18.90;99.90;;;;;;4988008;28;20053;-84
2022/09/10 10:34:09;;;;;;;17.85;11.75;;;18.90;99.90;;;;;;4984413;28;20050;-84
2022/09/10 10:36:58;;;;;;;17.38;12.23;;;18.90;99.90;;;;;;4988058;28;20050;-84
2022/09/10 10:39:42;;;;;;;17.83;11.52;;;19.00;99.90;;;;;;4989785;28;20043;-85
2022/09/10 10:42:14;;;;;;;20.80;11.93;;;19.00;99.90;;;;;;4971924;28;20061;-84
2022/09/10 10:44:55;;;;;;;16.48;11.20;;;19.00;99.90;;;;;;4994060;28;20038;-83
2022/09/10 10:47:48;;;;;;;17.63;11.50;;;19.00;99.90;;;;;;4989987;28;20046;-83
2022/09/10 10:50:43;;;;;;;18.55;10.35;;;19.00;99.90;;;;;;4990948;28;20080;-83
2022/09/10 10:53:45;;;;;;;14.18;8.85;;;19.10;99.90;;;;;;4988987;28;20121;-83
2022/09/10 10:56:27;;;;;;;14.23;9.80;;;19.20;99.90;;;;;;4985391;28;20074;-83
2022/09/10 10:59:08;;;;;;;14.57;9.82;;;19.30;99.90;;;;;;4970375;28;20056;-84
2022/09/10 11:02:26;;;;;;;16.27;9.57;;;19.30;99.90;;;;;;4986098;28;20056;-84
2022/09/10 11:04:53;;;;;;;15.23;9.80;;;19.40;99.90;;;;;;4941481;28;20399;-84
2022/09/10 11:07:26;;;;;;;12.25;8.73;;;19.50;99.90;;;;;;4989904;28;20042;-84
2022/09/10 11:10:04;;;;;;;15.75;11.05;;;19.60;99.90;;;;;;4969414;28;20046;-84
2022/09/10 11:12:40;;;;;;;16.77;11.63;;;19.80;99.90;;;;;;4962767;28;20058;-84
2022/09/10 11:15:33;;;;;;;16.42;10.90;;;19.90;99.90;;;;;;4971948;28;20099;-84
2022/09/10 11:18:11;;;;;;;13.65;9.73;;;20.00;99.90;;;;;;4948437;28;20074;-84
2022/09/10 11:20:42;;;;;;;15.10;10.20;;;20.00;99.90;;;;;;4934135;28;20067;-84
2022/09/10 11:23:34;;;;;;;12.98;9.60;;;20.10;99.90;;;;;;4947874;28;20106;-84
2022/09/10 11:26:12;;;;;;;14.15;9.13;;;20.10;99.90;;;;;;4969589;28;20042;-84
2022/09/10 11:28:46;;;;;;;12.90;9.15;;;20.10;99.90;;;;;;4936549;28;20501;-82
2022/09/10 11:31:30;;;;;;;15.25;8.77;;;20.20;99.90;;;;;;4969906;28;20050;-83
2022/09/10 11:34:07;;;;;;;13.00;7.63;;;20.20;99.90;;;;;;4965494;28;20066;-83
2022/09/10 11:36:48;;;;;;;15.85;9.55;;;20.30;99.90;;;;;;4970646;28;20046;-83
2022/09/10 11:39:35;;;;;;;14.40;7.80;;;20.40;99.90;;;;;;4971492;28;20047;-83
2022/09/10 11:42:17;;;;;;;13.57;8.57;;;20.40;99.90;;;;;;4936363;28;20059;-83
2022/09/10 11:44:46;;;;;;;13.45;8.75;;;20.50;99.90;;;;;;4935357;28;20055;-83
2022/09/10 11:47:22;;;;;;;13.43;8.23;;;20.60;99.90;;;;;;4951364;28;20053;-83
2022/09/10 11:49:59;;;;;;;9.10;7.35;;;20.70;99.90;;;;;;4965692;28;20046;-83
2022/09/10 11:52:30;;;;;;;10.85;7.97;;;20.80;99.90;;;;;;4970107;28;20074;-83
2022/09/10 11:54:56;;;;;;;14.00;8.25;;;20.80;99.90;;;;;;4952530;28;20093;-83
2022/09/10 11:57:31;;;;;;;13.38;8.30;;;20.80;99.90;;;;;;4969721;28;20070;-83
2022/09/10 12:00:14;;;;;;;10.80;7.28;;;20.80;99.90;;;;;;4951007;28;20047;-83
2022/09/10 12:02:52;;;;;;;11.00;7.57;;;20.80;99.90;;;;;;4946840;28;20186;-83
2022/09/10 12:05:29;;;;;;;10.45;6.85;;;20.80;99.90;;;;;;4951565;28;20138;-83
2022/09/10 12:08:19;;;;;;;10.60;6.82;;;20.80;99.90;;;;;;4951164;28;20049;-83
2022/09/10 12:11:15;;;;;;;11.80;7.40;;;20.80;99.90;;;;;;4964180;28;20059;-83
2022/09/10 12:13:44;;;;;;;12.90;8.68;;;20.80;99.90;;;;;;4967216;28;20707;-83
2022/09/10 12:16:19;;;;;;;10.70;7.72;;;20.80;99.90;;;;;;4950721;28;20121;-83
2022/09/10 12:18:49;;;;;;;11.93;8.25;;;20.80;99.90;;;;;;4963961;28;20174;-85
2022/09/10 12:21:36;;;;;;;16.15;9.43;;;20.80;99.90;;;;;;4962073;28;20042;-85
2022/09/10 12:24:35;;;;;;;14.20;8.70;;;20.90;99.90;;;;;;4947720;28;20047;-89
2022/09/10 12:27:02;;;;;;;14.77;10.18;;;21.00;99.90;;;;;;4951690;28;20050;-89
2022/09/10 12:29:35;;;;;;;12.13;8.32;;;20.90;99.90;;;;;;4970095;28;20527;-89
2022/09/10 12:32:19;;;;;;;12.60;8.18;;;21.20;99.90;;;;;;4947647;28;20124;-88
2022/09/10 12:34:49;;;;;;;10.35;7.80;;;21.20;99.90;;;;;;4928655;29;20385;-89
2022/09/10 12:37:28;;;;;;;15.43;9.68;;;21.50;99.90;;;;;;4951753;28;20039;-89
2022/09/10 12:40:23;;;;;;;14.48;8.65;;;21.30;99.90;;;;;;4954335;28;20434;-89
2022/09/10 12:42:49;;;;;;;15.63;10.75;;;21.20;99.90;;;;;;4969218;28;20085;-89
2022/09/10 12:45:54;;;;;;;13.23;9.65;;;21.10;99.90;;;;;;4953150;28;20038;-90
2022/09/10 12:48:20;;;;;;;13.60;8.35;;;21.10;99.90;;;;;;4930211;28;20054;-88
2022/09/10 12:50:59;;;;;;;14.02;8.65;;;21.00;99.90;;;;;;4968706;28;20050;-88